sensor_id;sensor_type;location;lat;lon;timestamp;P1;durP1;ratioP1;P2;durP2;ratioP2
51090;SDS011;37136;43.614;3.908;2023-02-01T00:00:58;23.35;;;14.13;;
51090;SDS011;37136;43.614;3.908;2023-02-01T00:03:24;26.50;;;15.43;;
51090;SDS011;37136;43.614;3.908;2023-02-01T00:05:54;27.33;;;15.85;;
51090;SDS011;37136;43.614;3.908;2023-02-01T00:08:21;26.83;;;15.82;;
51090;SDS011;37136;43.614;3.908;2023-02-01T00:10:47;27.30;;;16.88;;
51090;SDS011;37136;43.614;3.908;2023-02-01T00:13:14;28.95;;;16.50;;
51090;SDS011;37136;43.614;3.908;2023-02-01T00:15:40;28.23;;;17.60;;
51090;SDS011;37136;43.614;3.908;2023-02-01T00:18:06;30.80;;;17.40;;
51090;SDS011;37136;43.614;3.908;2023-02-01T00:20:32;29.00;;;15.85;;
51090;SDS011;37136;43.614;3.908;2023-02-01T00:22:58;35.25;;;18.45;;
51090;SDS011;37136;43.614;3.908;2023-02-01T00:25:24;33.08;;;19.38;;
51090;SDS011;37136;43.614;3.908;2023-02-01T00:27:50;36.58;;;19.65;;
51090;SDS011;37136;43.614;3.908;2023-02-01T00:30:17;33.08;;;19.83;;
51090;SDS011;37136;43.614;3.908;2023-02-01T00:32:43;30.70;;;18.52;;
51090;SDS011;37136;43.614;3.908;2023-02-01T00:35:09;27.70;;;16.58;;
51090;SDS011;37136;43.614;3.908;2023-02-01T00:37:35;25.13;;;15.70;;
51090;SDS011;37136;43.614;3.908;2023-02-01T00:40:01;24.23;;;14.98;;
51090;SDS011;37136;43.614;3.908;2023-02-01T00:42:27;28.00;;;15.73;;
51090;SDS011;37136;43.614;3.908;2023-02-01T00:44:53;26.05;;;13.38;;
51090;SDS011;37136;43.614;3.908;2023-02-01T00:47:19;23.67;;;14.35;;
51090;SDS011;37136;43.614;3.908;2023-02-01T00:49:45;26.75;;;14.70;;
51090;SDS011;37136;43.614;3.908;2023-02-01T00:52:11;21.95;;;13.88;;
51090;SDS011;37136;43.614;3.908;2023-02-01T00:54:37;20.92;;;14.00;;
51090;SDS011;37136;43.614;3.908;2023-02-01T00:57:03;21.52;;;13.32;;
51090;SDS011;37136;43.614;3.908;2023-02-01T00:59:29;24.42;;;14.68;;
51090;SDS011;37136;43.614;3.908;2023-02-01T01:01:55;20.58;;;12.20;;
51090;SDS011;37136;43.614;3.908;2023-02-01T01:04:22;20.33;;;11.85;;
51090;SDS011;37136;43.614;3.908;2023-02-01T01:06:48;17.00;;;11.55;;
51090;SDS011;37136;43.614;3.908;2023-02-01T01:09:14;18.80;;;12.02;;
51090;SDS011;37136;43.614;3.908;2023-02-01T01:11:40;22.42;;;12.27;;
51090;SDS011;37136;43.614;3.908;2023-02-01T01:14:06;20.52;;;11.88;;
51090;SDS011;37136;43.614;3.908;2023-02-01T01:16:33;23.77;;;12.75;;
51090;SDS011;37136;43.614;3.908;2023-02-01T01:18:59;17.48;;;11.43;;
51090;SDS011;37136;43.614;3.908;2023-02-01T01:21:26;19.00;;;12.00;;
51090;SDS011;37136;43.614;3.908;2023-02-01T01:23:53;19.30;;;11.05;;
51090;SDS011;37136;43.614;3.908;2023-02-01T01:26:20;19.33;;;10.40;;
51090;SDS011;37136;43.614;3.908;2023-02-01T01:28:47;20.05;;;11.80;;
51090;SDS011;37136;43.614;3.908;2023-02-01T01:31:14;20.55;;;12.35;;
51090;SDS011;37136;43.614;3.908;2023-02-01T01:33:41;22.20;;;13.35;;
51090;SDS011;37136;43.614;3.908;2023-02-01T01:36:09;23.65;;;14.27;;
51090;SDS011;37136;43.614;3.908;2023-02-01T01:38:36;27.83;;;15.27;;
51090;SDS011;37136;43.614;3.908;2023-02-01T01:41:02;21.02;;;13.40;;
51090;SDS011;37136;43.614;3.908;2023-02-01T01:46:17;18.70;;;10.50;;
51090;SDS011;37136;43.614;3.908;2023-02-01T01:48:44;20.65;;;11.50;;
51090;SDS011;37136;43.614;3.908;2023-02-01T01:51:11;14.75;;;9.93;;
51090;SDS011;37136;43.614;3.908;2023-02-01T01:53:50;14.57;;;9.50;;
51090;SDS011;37136;43.614;3.908;2023-02-01T01:56:18;16.15;;;8.85;;
51090;SDS011;37136;43.614;3.908;2023-02-01T01:58:45;13.32;;;8.15;;
51090;SDS011;37136;43.614;3.908;2023-02-01T02:01:11;17.52;;;10.13;;
51090;SDS011;37136;43.614;3.908;2023-02-01T02:03:43;18.73;;;10.48;;
51090;SDS011;37136;43.614;3.908;2023-02-01T02:08:55;15.73;;;9.65;;
51090;SDS011;37136;43.614;3.908;2023-02-01T02:11:21;18.15;;;10.23;;
51090;SDS011;37136;43.614;3.908;2023-02-01T02:13:52;18.90;;;11.68;;
51090;SDS011;37136;43.614;3.908;2023-02-01T02:45:09;12.73;;;6.90;;
51090;SDS011;37136;43.614;3.908;2023-02-01T02:48:02;11.07;;;7.00;;
51090;SDS011;37136;43.614;3.908;2023-02-01T02:50:34;12.45;;;7.10;;
51090;SDS011;37136;43.614;3.908;2023-02-01T02:53:23;12.55;;;6.63;;
51090;SDS011;37136;43.614;3.908;2023-02-01T02:56:09;9.77;;;6.13;;
51090;SDS011;37136;43.614;3.908;2023-02-01T02:58:54;12.10;;;6.75;;
51090;SDS011;37136;43.614;3.908;2023-02-01T03:01:39;11.13;;;6.93;;
51090;SDS011;37136;43.614;3.908;2023-02-01T03:04:25;10.30;;;6.80;;
51090;SDS011;37136;43.614;3.908;2023-02-01T03:06:51;11.73;;;7.00;;
51090;SDS011;37136;43.614;3.908;2023-02-01T03:12:04;10.13;;;6.30;;
51090;SDS011;37136;43.614;3.908;2023-02-01T03:14:50;11.88;;;6.07;;
51090;SDS011;37136;43.614;3.908;2023-02-01T03:17:22;11.68;;;6.90;;
51090;SDS011;37136;43.614;3.908;2023-02-01T03:19:51;10.85;;;6.32;;
51090;SDS011;37136;43.614;3.908;2023-02-01T03:22:22;10.75;;;6.65;;
51090;SDS011;37136;43.614;3.908;2023-02-01T03:25:05;10.48;;;6.38;;
51090;SDS011;37136;43.614;3.908;2023-02-01T03:30:21;9.77;;;5.22;;
51090;SDS011;37136;43.614;3.908;2023-02-01T03:32:49;8.40;;;5.20;;
51090;SDS011;37136;43.614;3.908;2023-02-01T03:40:36;8.70;;;5.50;;
51090;SDS011;37136;43.614;3.908;2023-02-01T03:43:02;9.45;;;5.75;;
51090;SDS011;37136;43.614;3.908;2023-02-01T03:45:34;9.57;;;6.00;;
51090;SDS011;37136;43.614;3.908;2023-02-01T03:48:04;6.30;;;4.75;;
51090;SDS011;37136;43.614;3.908;2023-02-01T03:50:30;8.48;;;5.07;;
51090;SDS011;37136;43.614;3.908;2023-02-01T03:53:05;9.73;;;5.90;;
51090;SDS011;37136;43.614;3.908;2023-02-01T03:55:32;12.77;;;6.05;;
51090;SDS011;37136;43.614;3.908;2023-02-01T04:00:29;7.68;;;4.70;;
51090;SDS011;37136;43.614;3.908;2023-02-01T04:02:55;7.25;;;4.60;;
51090;SDS011;37136;43.614;3.908;2023-02-01T04:05:21;9.50;;;4.40;;
51090;SDS011;37136;43.614;3.908;2023-02-01T04:07:48;7.47;;;4.53;;
51090;SDS011;37136;43.614;3.908;2023-02-01T04:10:14;7.32;;;4.15;;
51090;SDS011;37136;43.614;3.908;2023-02-01T04:12:40;6.47;;;4.18;;
51090;SDS011;37136;43.614;3.908;2023-02-01T04:15:06;8.85;;;4.47;;
51090;SDS011;37136;43.614;3.908;2023-02-01T04:17:33;13.57;;;4.90;;
51090;SDS011;37136;43.614;3.908;2023-02-01T04:19:59;6.35;;;3.92;;
51090;SDS011;37136;43.614;3.908;2023-02-01T04:22:25;6.97;;;4.18;;
51090;SDS011;37136;43.614;3.908;2023-02-01T04:24:51;6.53;;;4.60;;
51090;SDS011;37136;43.614;3.908;2023-02-01T04:27:17;6.78;;;3.95;;
51090;SDS011;37136;43.614;3.908;2023-02-01T04:29:44;11.07;;;4.18;;
51090;SDS011;37136;43.614;3.908;2023-02-01T04:32:14;10.02;;;3.65;;
51090;SDS011;37136;43.614;3.908;2023-02-01T04:34:41;6.38;;;4.03;;
51090;SDS011;37136;43.614;3.908;2023-02-01T04:37:07;8.05;;;3.88;;
51090;SDS011;37136;43.614;3.908;2023-02-01T04:39:34;6.32;;;3.42;;
51090;SDS011;37136;43.614;3.908;2023-02-01T04:42:00;6.97;;;3.42;;
51090;SDS011;37136;43.614;3.908;2023-02-01T04:44:26;5.68;;;3.53;;
51090;SDS011;37136;43.614;3.908;2023-02-01T04:46:52;8.32;;;3.35;;
51090;SDS011;37136;43.614;3.908;2023-02-01T04:49:18;5.93;;;3.33;;
51090;SDS011;37136;43.614;3.908;2023-02-01T04:51:46;8.38;;;3.42;;
51090;SDS011;37136;43.614;3.908;2023-02-01T04:54:12;8.65;;;3.78;;
51090;SDS011;37136;43.614;3.908;2023-02-01T04:56:38;8.18;;;3.45;;
51090;SDS011;37136;43.614;3.908;2023-02-01T04:59:05;8.82;;;3.85;;
51090;SDS011;37136;43.614;3.908;2023-02-01T05:01:31;4.95;;;3.78;;
51090;SDS011;37136;43.614;3.908;2023-02-01T05:03:57;5.35;;;3.40;;
51090;SDS011;37136;43.614;3.908;2023-02-01T05:06:23;6.18;;;3.60;;
51090;SDS011;37136;43.614;3.908;2023-02-01T05:08:49;7.40;;;4.25;;
51090;SDS011;37136;43.614;3.908;2023-02-01T05:11:15;6.15;;;3.38;;
51090;SDS011;37136;43.614;3.908;2023-02-01T05:14:00;5.15;;;3.60;;
51090;SDS011;37136;43.614;3.908;2023-02-01T05:16:26;5.63;;;3.33;;
51090;SDS011;37136;43.614;3.908;2023-02-01T05:18:53;7.03;;;3.80;;
51090;SDS011;37136;43.614;3.908;2023-02-01T05:21:19;11.43;;;4.80;;
51090;SDS011;37136;43.614;3.908;2023-02-01T05:23:45;10.85;;;4.55;;
51090;SDS011;37136;43.614;3.908;2023-02-01T05:26:30;6.43;;;3.80;;
51090;SDS011;37136;43.614;3.908;2023-02-01T05:28:56;6.80;;;3.65;;
51090;SDS011;37136;43.614;3.908;2023-02-01T05:31:22;7.10;;;3.60;;
51090;SDS011;37136;43.614;3.908;2023-02-01T05:33:49;7.82;;;4.68;;
51090;SDS011;37136;43.614;3.908;2023-02-01T05:36:15;5.32;;;4.47;;
51090;SDS011;37136;43.614;3.908;2023-02-01T05:38:41;8.98;;;4.72;;
51090;SDS011;37136;43.614;3.908;2023-02-01T05:41:07;7.50;;;4.45;;
51090;SDS011;37136;43.614;3.908;2023-02-01T05:43:34;6.28;;;4.10;;
51090;SDS011;37136;43.614;3.908;2023-02-01T05:46:00;11.00;;;4.53;;
51090;SDS011;37136;43.614;3.908;2023-02-01T05:48:26;10.55;;;5.05;;
51090;SDS011;37136;43.614;3.908;2023-02-01T05:50:52;8.98;;;4.90;;
51090;SDS011;37136;43.614;3.908;2023-02-01T05:53:18;9.57;;;4.45;;
51090;SDS011;37136;43.614;3.908;2023-02-01T05:55:44;9.43;;;4.35;;
51090;SDS011;37136;43.614;3.908;2023-02-01T05:58:10;7.45;;;3.97;;
51090;SDS011;37136;43.614;3.908;2023-02-01T06:00:37;6.35;;;3.78;;
51090;SDS011;37136;43.614;3.908;2023-02-01T06:03:03;7.30;;;3.75;;
51090;SDS011;37136;43.614;3.908;2023-02-01T06:05:29;8.13;;;4.55;;
51090;SDS011;37136;43.614;3.908;2023-02-01T06:07:55;8.02;;;4.50;;
51090;SDS011;37136;43.614;3.908;2023-02-01T06:10:22;6.85;;;3.83;;
51090;SDS011;37136;43.614;3.908;2023-02-01T06:12:48;9.40;;;4.28;;
51090;SDS011;37136;43.614;3.908;2023-02-01T06:15:14;7.25;;;3.55;;
51090;SDS011;37136;43.614;3.908;2023-02-01T06:17:41;7.15;;;3.88;;
51090;SDS011;37136;43.614;3.908;2023-02-01T06:20:10;6.20;;;4.05;;
51090;SDS011;37136;43.614;3.908;2023-02-01T06:22:36;12.60;;;4.97;;
51090;SDS011;37136;43.614;3.908;2023-02-01T06:25:03;8.23;;;4.03;;
51090;SDS011;37136;43.614;3.908;2023-02-01T06:27:30;8.88;;;4.43;;
51090;SDS011;37136;43.614;3.908;2023-02-01T06:29:56;9.82;;;4.63;;
51090;SDS011;37136;43.614;3.908;2023-02-01T06:32:22;12.35;;;5.00;;
51090;SDS011;37136;43.614;3.908;2023-02-01T06:34:49;11.50;;;4.57;;
51090;SDS011;37136;43.614;3.908;2023-02-01T06:37:17;7.30;;;4.88;;
51090;SDS011;37136;43.614;3.908;2023-02-01T06:39:43;10.60;;;4.68;;
51090;SDS011;37136;43.614;3.908;2023-02-01T06:42:09;9.13;;;4.43;;
51090;SDS011;37136;43.614;3.908;2023-02-01T06:44:35;6.95;;;4.30;;
51090;SDS011;37136;43.614;3.908;2023-02-01T06:47:03;9.63;;;3.83;;
51090;SDS011;37136;43.614;3.908;2023-02-01T06:49:29;7.97;;;3.90;;
51090;SDS011;37136;43.614;3.908;2023-02-01T06:51:55;9.77;;;4.35;;
51090;SDS011;37136;43.614;3.908;2023-02-01T06:54:21;6.45;;;3.70;;
51090;SDS011;37136;43.614;3.908;2023-02-01T06:56:47;11.48;;;4.00;;
51090;SDS011;37136;43.614;3.908;2023-02-01T06:59:13;13.18;;;3.63;;
51090;SDS011;37136;43.614;3.908;2023-02-01T07:01:39;11.32;;;4.28;;
51090;SDS011;37136;43.614;3.908;2023-02-01T07:04:05;12.45;;;4.53;;
51090;SDS011;37136;43.614;3.908;2023-02-01T07:06:32;8.15;;;4.28;;
51090;SDS011;37136;43.614;3.908;2023-02-01T07:08:58;6.70;;;4.22;;
51090;SDS011;37136;43.614;3.908;2023-02-01T07:11:25;6.68;;;4.45;;
51090;SDS011;37136;43.614;3.908;2023-02-01T07:13:53;11.48;;;5.07;;
51090;SDS011;37136;43.614;3.908;2023-02-01T07:16:19;9.80;;;4.53;;
51090;SDS011;37136;43.614;3.908;2023-02-01T07:18:46;14.52;;;5.00;;
51090;SDS011;37136;43.614;3.908;2023-02-01T07:21:12;12.27;;;5.97;;
51090;SDS011;37136;43.614;3.908;2023-02-01T07:23:38;12.05;;;5.40;;
51090;SDS011;37136;43.614;3.908;2023-02-01T07:26:05;15.48;;;5.13;;
51090;SDS011;37136;43.614;3.908;2023-02-01T07:28:33;11.32;;;5.45;;
51090;SDS011;37136;43.614;3.908;2023-02-01T07:31:06;13.68;;;6.05;;
51090;SDS011;37136;43.614;3.908;2023-02-01T07:33:33;14.40;;;6.10;;
51090;SDS011;37136;43.614;3.908;2023-02-01T07:36:01;11.18;;;5.78;;
51090;SDS011;37136;43.614;3.908;2023-02-01T07:38:27;16.45;;;6.55;;
51090;SDS011;37136;43.614;3.908;2023-02-01T07:40:57;16.20;;;5.72;;
51090;SDS011;37136;43.614;3.908;2023-02-01T07:43:24;10.57;;;6.32;;
51090;SDS011;37136;43.614;3.908;2023-02-01T07:45:50;14.02;;;6.10;;
51090;SDS011;37136;43.614;3.908;2023-02-01T07:48:17;11.85;;;5.45;;
51090;SDS011;37136;43.614;3.908;2023-02-01T07:50:43;8.55;;;5.28;;
51090;SDS011;37136;43.614;3.908;2023-02-01T07:53:09;17.13;;;5.53;;
51090;SDS011;37136;43.614;3.908;2023-02-01T07:55:37;8.95;;;5.18;;
51090;SDS011;37136;43.614;3.908;2023-02-01T07:58:03;10.75;;;5.32;;
51090;SDS011;37136;43.614;3.908;2023-02-01T08:00:29;13.80;;;6.15;;
51090;SDS011;37136;43.614;3.908;2023-02-01T08:03:14;25.48;;;7.07;;
51090;SDS011;37136;43.614;3.908;2023-02-01T08:05:40;27.80;;;6.90;;
51090;SDS011;37136;43.614;3.908;2023-02-01T08:08:06;25.77;;;6.85;;
51090;SDS011;37136;43.614;3.908;2023-02-01T08:10:33;26.60;;;7.25;;
51090;SDS011;37136;43.614;3.908;2023-02-01T08:13:00;27.02;;;5.80;;
51090;SDS011;37136;43.614;3.908;2023-02-01T08:15:27;21.10;;;6.90;;
51090;SDS011;37136;43.614;3.908;2023-02-01T08:17:53;25.65;;;7.55;;
51090;SDS011;37136;43.614;3.908;2023-02-01T08:20:20;21.83;;;6.35;;
51090;SDS011;37136;43.614;3.908;2023-02-01T08:22:50;27.85;;;8.13;;
51090;SDS011;37136;43.614;3.908;2023-02-01T08:25:16;20.65;;;6.47;;
51090;SDS011;37136;43.614;3.908;2023-02-01T08:27:43;23.13;;;7.55;;
51090;SDS011;37136;43.614;3.908;2023-02-01T08:30:09;29.50;;;7.88;;
51090;SDS011;37136;43.614;3.908;2023-02-01T08:32:35;17.90;;;6.22;;
51090;SDS011;37136;43.614;3.908;2023-02-01T08:35:02;15.18;;;5.70;;
51090;SDS011;37136;43.614;3.908;2023-02-01T08:37:28;17.00;;;5.45;;
51090;SDS011;37136;43.614;3.908;2023-02-01T08:39:54;13.77;;;4.60;;
51090;SDS011;37136;43.614;3.908;2023-02-01T08:42:20;9.15;;;5.25;;
51090;SDS011;37136;43.614;3.908;2023-02-01T08:45:05;20.00;;;5.32;;
51090;SDS011;37136;43.614;3.908;2023-02-01T08:47:33;15.35;;;4.65;;
51090;SDS011;37136;43.614;3.908;2023-02-01T08:49:59;12.25;;;5.28;;
51090;SDS011;37136;43.614;3.908;2023-02-01T08:52:25;15.98;;;5.00;;
51090;SDS011;37136;43.614;3.908;2023-02-01T08:54:51;14.27;;;4.85;;
51090;SDS011;37136;43.614;3.908;2023-02-01T08:57:18;14.82;;;6.22;;
51090;SDS011;37136;43.614;3.908;2023-02-01T08:59:44;12.98;;;6.18;;
51090;SDS011;37136;43.614;3.908;2023-02-01T09:02:14;12.50;;;6.55;;
51090;SDS011;37136;43.614;3.908;2023-02-01T09:04:40;10.88;;;4.50;;
51090;SDS011;37136;43.614;3.908;2023-02-01T09:07:07;6.45;;;3.20;;
51090;SDS011;37136;43.614;3.908;2023-02-01T09:09:33;12.85;;;4.75;;
51090;SDS011;37136;43.614;3.908;2023-02-01T09:12:00;8.27;;;3.53;;
51090;SDS011;37136;43.614;3.908;2023-02-01T09:14:26;8.80;;;3.88;;
51090;SDS011;37136;43.614;3.908;2023-02-01T09:16:52;8.75;;;4.10;;
51090;SDS011;37136;43.614;3.908;2023-02-01T09:19:18;9.48;;;4.30;;
51090;SDS011;37136;43.614;3.908;2023-02-01T09:21:44;8.10;;;3.88;;
51090;SDS011;37136;43.614;3.908;2023-02-01T09:24:10;8.60;;;3.53;;
51090;SDS011;37136;43.614;3.908;2023-02-01T09:26:37;9.95;;;2.78;;
51090;SDS011;37136;43.614;3.908;2023-02-01T09:29:03;5.55;;;3.08;;
51090;SDS011;37136;43.614;3.908;2023-02-01T09:31:35;2.67;;;1.63;;
51090;SDS011;37136;43.614;3.908;2023-02-01T09:34:01;3.25;;;1.92;;
51090;SDS011;37136;43.614;3.908;2023-02-01T09:36:27;3.20;;;1.90;;
51090;SDS011;37136;43.614;3.908;2023-02-01T09:38:53;6.00;;;1.60;;
51090;SDS011;37136;43.614;3.908;2023-02-01T09:43:51;6.07;;;2.40;;
51090;SDS011;37136;43.614;3.908;2023-02-01T09:46:24;3.60;;;2.22;;
51090;SDS011;37136;43.614;3.908;2023-02-01T09:48:53;1.92;;;1.60;;
51090;SDS011;37136;43.614;3.908;2023-02-01T09:51:20;4.55;;;1.77;;
51090;SDS011;37136;43.614;3.908;2023-02-01T09:53:55;4.63;;;2.03;;
51090;SDS011;37136;43.614;3.908;2023-02-01T09:56:24;5.88;;;2.58;;
51090;SDS011;37136;43.614;3.908;2023-02-01T09:59:01;3.20;;;1.58;;
51090;SDS011;37136;43.614;3.908;2023-02-01T10:01:29;2.40;;;1.30;;
51090;SDS011;37136;43.614;3.908;2023-02-01T10:04:30;5.35;;;2.42;;
51090;SDS011;37136;43.614;3.908;2023-02-01T10:22:41;4.88;;;1.80;;
51090;SDS011;37136;43.614;3.908;2023-02-01T10:27:53;3.45;;;1.90;;
51090;SDS011;37136;43.614;3.908;2023-02-01T10:30:23;6.60;;;1.45;;
51090;SDS011;37136;43.614;3.908;2023-02-01T10:32:52;5.78;;;1.40;;
51090;SDS011;37136;43.614;3.908;2023-02-01T10:35:54;2.05;;;1.45;;
51090;SDS011;37136;43.614;3.908;2023-02-01T10:38:18;2.58;;;1.40;;
51090;SDS011;37136;43.614;3.908;2023-02-01T10:40:47;2.05;;;1.30;;
51090;SDS011;37136;43.614;3.908;2023-02-01T10:43:14;1.75;;;1.30;;
51090;SDS011;37136;43.614;3.908;2023-02-01T10:45:40;2.88;;;1.33;;
51090;SDS011;37136;43.614;3.908;2023-02-01T10:48:07;15.40;;;2.05;;
51090;SDS011;37136;43.614;3.908;2023-02-01T10:53:02;2.35;;;1.60;;
51090;SDS011;37136;43.614;3.908;2023-02-01T10:58:01;2.42;;;1.60;;
51090;SDS011;37136;43.614;3.908;2023-02-01T11:00:28;2.70;;;1.48;;
51090;SDS011;37136;43.614;3.908;2023-02-01T11:03:00;2.97;;;1.05;;
51090;SDS011;37136;43.614;3.908;2023-02-01T11:05:26;1.60;;;1.15;;
51090;SDS011;37136;43.614;3.908;2023-02-01T11:07:53;1.65;;;1.17;;
51090;SDS011;37136;43.614;3.908;2023-02-01T11:13:07;8.32;;;1.98;;
51090;SDS011;37136;43.614;3.908;2023-02-01T11:15:37;2.08;;;1.25;;
51090;SDS011;37136;43.614;3.908;2023-02-01T11:18:16;1.48;;;1.00;;
51090;SDS011;37136;43.614;3.908;2023-02-01T11:20:43;1.45;;;1.17;;
51090;SDS011;37136;43.614;3.908;2023-02-01T11:23:18;2.63;;;1.42;;
51090;SDS011;37136;43.614;3.908;2023-02-01T11:25:48;4.20;;;1.70;;
51090;SDS011;37136;43.614;3.908;2023-02-01T11:28:14;7.40;;;1.63;;
51090;SDS011;37136;43.614;3.908;2023-02-01T11:30:42;5.13;;;1.27;;
51090;SDS011;37136;43.614;3.908;2023-02-01T11:33:12;2.70;;;1.38;;
51090;SDS011;37136;43.614;3.908;2023-02-01T11:35:39;7.18;;;1.10;;
51090;SDS011;37136;43.614;3.908;2023-02-01T11:38:20;1.25;;;1.15;;
51090;SDS011;37136;43.614;3.908;2023-02-01T11:40:47;10.48;;;3.20;;
51090;SDS011;37136;43.614;3.908;2023-02-01T11:48:09;4.25;;;1.30;;
51090;SDS011;37136;43.614;3.908;2023-02-01T11:50:37;6.25;;;1.67;;
51090;SDS011;37136;43.614;3.908;2023-02-01T11:55:42;2.63;;;1.23;;
51090;SDS011;37136;43.614;3.908;2023-02-01T11:58:22;5.32;;;1.35;;
51090;SDS011;37136;43.614;3.908;2023-02-01T12:00:59;0.85;;;0.70;;
51090;SDS011;37136;43.614;3.908;2023-02-01T12:08:46;1.48;;;0.60;;
51090;SDS011;37136;43.614;3.908;2023-02-01T12:26:58;3.10;;;0.90;;
51090;SDS011;37136;43.614;3.908;2023-02-01T12:42:31;1.35;;;1.05;;
51090;SDS011;37136;43.614;3.908;2023-02-01T12:45:41;1.20;;;1.02;;
51090;SDS011;37136;43.614;3.908;2023-02-01T12:47:56;1.15;;;1.00;;
51090;SDS011;37136;43.614;3.908;2023-02-01T12:50:28;2.38;;;1.20;;
51090;SDS011;37136;43.614;3.908;2023-02-01T12:53:02;12.85;;;1.38;;
51090;SDS011;37136;43.614;3.908;2023-02-01T12:55:38;5.32;;;0.90;;
51090;SDS011;37136;43.614;3.908;2023-02-01T13:00:49;2.88;;;1.52;;
51090;SDS011;37136;43.614;3.908;2023-02-01T13:05:49;2.95;;;0.95;;
51090;SDS011;37136;43.614;3.908;2023-02-01T13:08:18;1.02;;;0.88;;
51090;SDS011;37136;43.614;3.908;2023-02-01T13:11:07;1.08;;;0.80;;
51090;SDS011;37136;43.614;3.908;2023-02-01T13:13:44;1.38;;;1.10;;
51090;SDS011;37136;43.614;3.908;2023-02-01T13:18:38;4.90;;;1.15;;
51090;SDS011;37136;43.614;3.908;2023-02-01T13:21:10;2.50;;;1.20;;
51090;SDS011;37136;43.614;3.908;2023-02-01T13:23:41;2.15;;;0.90;;
51090;SDS011;37136;43.614;3.908;2023-02-01T13:26:07;1.30;;;0.85;;
51090;SDS011;37136;43.614;3.908;2023-02-01T13:33:42;0.90;;;0.80;;
51090;SDS011;37136;43.614;3.908;2023-02-01T13:36:17;1.17;;;0.88;;
51090;SDS011;37136;43.614;3.908;2023-02-01T13:41:31;0.80;;;0.65;;
51090;SDS011;37136;43.614;3.908;2023-02-01T13:44:03;0.95;;;0.82;;
51090;SDS011;37136;43.614;3.908;2023-02-01T13:46:38;1.27;;;0.60;;
51090;SDS011;37136;43.614;3.908;2023-02-01T13:49:05;2.00;;;0.82;;
51090;SDS011;37136;43.614;3.908;2023-02-01T13:51:35;4.50;;;1.20;;
51090;SDS011;37136;43.614;3.908;2023-02-01T13:54:03;1.38;;;0.98;;
51090;SDS011;37136;43.614;3.908;2023-02-01T13:56:32;4.63;;;1.05;;
51090;SDS011;37136;43.614;3.908;2023-02-01T13:59:35;1.55;;;1.02;;
51090;SDS011;37136;43.614;3.908;2023-02-01T14:01:51;1.27;;;0.95;;
51090;SDS011;37136;43.614;3.908;2023-02-01T14:07:02;1.95;;;1.08;;
51090;SDS011;37136;43.614;3.908;2023-02-01T14:09:32;4.10;;;1.08;;
51090;SDS011;37136;43.614;3.908;2023-02-01T14:12:41;4.78;;;1.15;;
51090;SDS011;37136;43.614;3.908;2023-02-01T14:14:45;3.03;;;1.40;;
51090;SDS011;37136;43.614;3.908;2023-02-01T14:19:37;3.85;;;1.10;;
51090;SDS011;37136;43.614;3.908;2023-02-01T14:24:52;0.88;;;0.88;;
51090;SDS011;37136;43.614;3.908;2023-02-01T14:27:22;0.90;;;0.90;;
51090;SDS011;37136;43.614;3.908;2023-02-01T14:30:05;1.23;;;1.00;;
51090;SDS011;37136;43.614;3.908;2023-02-01T14:32:36;2.78;;;0.88;;
51090;SDS011;37136;43.614;3.908;2023-02-01T14:35:07;1.05;;;0.95;;
51090;SDS011;37136;43.614;3.908;2023-02-01T14:37:34;2.28;;;1.27;;
51090;SDS011;37136;43.614;3.908;2023-02-01T14:40:20;1.50;;;1.10;;
51090;SDS011;37136;43.614;3.908;2023-02-01T14:42:49;8.27;;;1.17;;
51090;SDS011;37136;43.614;3.908;2023-02-01T14:47:47;1.30;;;0.90;;
51090;SDS011;37136;43.614;3.908;2023-02-01T14:58:10;5.13;;;1.10;;
51090;SDS011;37136;43.614;3.908;2023-02-01T15:00:46;2.40;;;0.98;;
51090;SDS011;37136;43.614;3.908;2023-02-01T15:03:21;2.13;;;0.73;;
51090;SDS011;37136;43.614;3.908;2023-02-01T15:05:58;3.42;;;0.95;;
51090;SDS011;37136;43.614;3.908;2023-02-01T15:08:30;2.47;;;1.05;;
51090;SDS011;37136;43.614;3.908;2023-02-01T15:10:57;0.70;;;0.60;;
51090;SDS011;37136;43.614;3.908;2023-02-01T15:13:25;3.10;;;1.00;;
51090;SDS011;37136;43.614;3.908;2023-02-01T15:16:05;1.23;;;0.90;;
51090;SDS011;37136;43.614;3.908;2023-02-01T15:18:34;1.70;;;0.80;;
51090;SDS011;37136;43.614;3.908;2023-02-01T15:21:01;0.70;;;0.70;;
51090;SDS011;37136;43.614;3.908;2023-02-01T15:23:28;1.52;;;0.70;;
51090;SDS011;37136;43.614;3.908;2023-02-01T15:25:55;1.33;;;0.80;;
51090;SDS011;37136;43.614;3.908;2023-02-01T15:28:22;1.95;;;0.80;;
51090;SDS011;37136;43.614;3.908;2023-02-01T15:31:01;3.90;;;0.90;;
51090;SDS011;37136;43.614;3.908;2023-02-01T15:33:30;0.85;;;0.85;;
51090;SDS011;37136;43.614;3.908;2023-02-01T15:36:10;1.00;;;0.73;;
51090;SDS011;37136;43.614;3.908;2023-02-01T15:38:41;2.00;;;0.80;;
51090;SDS011;37136;43.614;3.908;2023-02-01T15:41:11;1.35;;;0.90;;
51090;SDS011;37136;43.614;3.908;2023-02-01T15:43:41;3.47;;;1.15;;
51090;SDS011;37136;43.614;3.908;2023-02-01T15:46:09;5.78;;;1.15;;
51090;SDS011;37136;43.614;3.908;2023-02-01T15:48:37;2.83;;;1.00;;
51090;SDS011;37136;43.614;3.908;2023-02-01T15:51:04;3.47;;;0.80;;
51090;SDS011;37136;43.614;3.908;2023-02-01T15:53:30;1.42;;;0.95;;
51090;SDS011;37136;43.614;3.908;2023-02-01T15:56:01;1.55;;;0.93;;
51090;SDS011;37136;43.614;3.908;2023-02-01T15:58:29;6.60;;;1.45;;
51090;SDS011;37136;43.614;3.908;2023-02-01T16:00:58;7.10;;;0.80;;
51090;SDS011;37136;43.614;3.908;2023-02-01T16:03:37;1.92;;;0.90;;
51090;SDS011;37136;43.614;3.908;2023-02-01T16:06:10;0.80;;;0.70;;
51090;SDS011;37136;43.614;3.908;2023-02-01T16:08:37;4.88;;;0.80;;
51090;SDS011;37136;43.614;3.908;2023-02-01T16:13:35;1.13;;;0.70;;
51090;SDS011;37136;43.614;3.908;2023-02-01T16:16:02;0.80;;;0.80;;
51090;SDS011;37136;43.614;3.908;2023-02-01T16:18:32;4.65;;;1.10;;
51090;SDS011;37136;43.614;3.908;2023-02-01T16:20:58;1.30;;;0.68;;
51090;SDS011;37136;43.614;3.908;2023-02-01T16:23:24;0.90;;;0.73;;
51090;SDS011;37136;43.614;3.908;2023-02-01T16:25:51;4.18;;;0.80;;
51090;SDS011;37136;43.614;3.908;2023-02-01T16:28:17;1.65;;;1.00;;
51090;SDS011;37136;43.614;3.908;2023-02-01T16:30:43;1.48;;;1.10;;
51090;SDS011;37136;43.614;3.908;2023-02-01T16:33:11;3.13;;;1.38;;
51090;SDS011;37136;43.614;3.908;2023-02-01T16:35:40;2.65;;;1.35;;
51090;SDS011;37136;43.614;3.908;2023-02-01T16:38:10;6.75;;;1.23;;
51090;SDS011;37136;43.614;3.908;2023-02-01T16:40:41;2.50;;;1.30;;
51090;SDS011;37136;43.614;3.908;2023-02-01T16:43:11;1.17;;;1.08;;
51090;SDS011;37136;43.614;3.908;2023-02-01T16:45:38;8.48;;;1.65;;
51090;SDS011;37136;43.614;3.908;2023-02-01T16:48:05;1.70;;;1.00;;
51090;SDS011;37136;43.614;3.908;2023-02-01T16:50:32;2.03;;;1.20;;
51090;SDS011;37136;43.614;3.908;2023-02-01T16:52:59;1.88;;;1.30;;
51090;SDS011;37136;43.614;3.908;2023-02-01T16:55:27;6.07;;;1.88;;
51090;SDS011;37136;43.614;3.908;2023-02-01T16:57:54;2.55;;;1.15;;
51090;SDS011;37136;43.614;3.908;2023-02-01T17:00:20;4.35;;;1.42;;
51090;SDS011;37136;43.614;3.908;2023-02-01T17:02:46;2.03;;;1.30;;
51090;SDS011;37136;43.614;3.908;2023-02-01T17:05:12;4.90;;;1.63;;
51090;SDS011;37136;43.614;3.908;2023-02-01T17:07:38;4.43;;;2.08;;
51090;SDS011;37136;43.614;3.908;2023-02-01T17:10:08;3.95;;;1.73;;
51090;SDS011;37136;43.614;3.908;2023-02-01T17:12:40;2.42;;;1.70;;
51090;SDS011;37136;43.614;3.908;2023-02-01T17:15:06;2.83;;;1.70;;
51090;SDS011;37136;43.614;3.908;2023-02-01T17:17:33;3.00;;;1.58;;
51090;SDS011;37136;43.614;3.908;2023-02-01T17:20:01;2.60;;;1.88;;
51090;SDS011;37136;43.614;3.908;2023-02-01T17:22:29;8.88;;;1.77;;
51090;SDS011;37136;43.614;3.908;2023-02-01T17:24:55;2.90;;;1.73;;